createdAt,value
2019-02-10T00:00:36.540Z,11.23
2019-02-10T00:03:04.761Z,7.97
2019-02-10T00:05:33.011Z,16.50
2019-02-10T00:08:01.225Z,7.57
2019-02-10T00:10:29.471Z,9.20
2019-02-10T00:13:15.740Z,9.77
2019-02-10T00:15:43.981Z,7.57
2019-02-10T00:18:12.188Z,6.93
2019-02-10T00:20:40.432Z,6.27
2019-02-10T00:23:08.636Z,6.97
2019-02-10T00:25:36.861Z,6.40
2019-02-10T00:28:05.108Z,8.20
2019-02-10T00:30:33.315Z,6.77
2019-02-10T00:33:01.557Z,6.73
2019-02-10T00:35:30.272Z,6.00
2019-02-10T00:37:58.512Z,5.97
2019-02-10T00:40:26.728Z,6.67
2019-02-10T00:42:54.971Z,5.40
2019-02-10T00:45:23.183Z,7.63
2019-02-10T00:47:51.433Z,7.07
2019-02-10T00:50:19.645Z,6.73
2019-02-10T00:52:47.893Z,5.50
2019-02-10T00:55:16.108Z,7.23
2019-02-10T00:57:44.357Z,5.50
2019-02-10T01:00:13.108Z,6.30
2019-02-10T01:02:41.356Z,5.17
2019-02-10T01:05:09.627Z,5.50
2019-02-10T01:07:37.873Z,5.80
2019-02-10T01:10:07.357Z,5.50
2019-02-10T01:12:35.595Z,5.50
2019-02-10T01:15:04.385Z,6.40
2019-02-10T01:17:32.629Z,6.27
2019-02-10T01:20:00.873Z,8.47
2019-02-10T01:22:29.093Z,5.53
2019-02-10T01:24:57.403Z,6.10
2019-02-10T01:27:25.650Z,5.33
2019-02-10T01:29:53.861Z,7.93
2019-02-10T01:32:22.076Z,8.33
2019-02-10T01:34:50.369Z,5.73
2019-02-10T01:37:18.540Z,6.47
2019-02-10T01:39:46.863Z,5.57
2019-02-10T01:42:15.076Z,6.90
2019-02-10T01:44:43.320Z,9.23
2019-02-10T01:47:11.536Z,6.80
2019-02-10T01:49:39.775Z,6.30
2019-02-10T01:52:07.988Z,8.03
2019-02-10T01:54:36.228Z,8.77
2019-02-10T01:57:04.515Z,8.50
2019-02-10T01:59:32.756Z,8.63
2019-02-10T02:02:01.340Z,10.27
2019-02-10T02:04:29.580Z,9.10
2019-02-10T02:06:58.227Z,9.10
2019-02-10T02:09:26.532Z,5.83
2019-02-10T02:11:54.752Z,5.43
2019-02-10T02:14:22.988Z,7.37
2019-02-10T02:16:51.208Z,7.37
2019-02-10T02:19:19.456Z,5.50
2019-02-10T02:21:47.668Z,5.43
2019-02-10T02:24:15.912Z,5.63
2019-02-10T02:26:44.131Z,5.30
2019-02-10T02:29:12.364Z,5.30
2019-02-10T02:31:40.626Z,5.63
2019-02-10T02:34:08.834Z,6.53
2019-02-10T02:36:38.686Z,5.27
2019-02-10T02:39:06.928Z,6.13
2019-02-10T02:41:35.149Z,5.77
2019-02-10T02:44:03.396Z,5.20
2019-02-10T02:46:31.608Z,6.60
2019-02-10T02:48:59.820Z,6.87
2019-02-10T02:51:28.060Z,7.70
2019-02-10T02:53:56.276Z,6.83
2019-02-10T02:56:24.525Z,6.40
2019-02-10T02:58:52.735Z,5.57
2019-02-10T03:01:20.972Z,5.53
2019-02-10T03:03:49.185Z,5.00
2019-02-10T03:06:17.424Z,6.60
2019-02-10T03:08:45.631Z,5.83
2019-02-10T03:11:13.906Z,6.40
2019-02-10T03:13:42.107Z,5.83
2019-02-10T03:16:10.340Z,6.20
2019-02-10T03:18:38.585Z,7.00
2019-02-10T03:21:06.819Z,5.93
2019-02-10T03:23:35.034Z,5.33
2019-02-10T03:26:03.267Z,5.53
2019-02-10T03:28:31.514Z,5.40
2019-02-10T03:30:59.795Z,5.60
2019-02-10T03:33:27.994Z,7.23
2019-02-10T03:35:56.228Z,5.57
2019-02-10T03:38:24.440Z,5.30
2019-02-10T03:40:52.680Z,6.23
2019-02-10T03:43:20.884Z,6.00
2019-02-10T03:45:49.119Z,4.90
2019-02-10T03:48:17.345Z,5.83
2019-02-10T03:50:45.572Z,6.73
2019-02-10T03:53:13.783Z,5.63
2019-02-10T03:55:42.080Z,5.20
2019-02-10T03:58:10.288Z,5.07
2019-02-10T04:00:38.500Z,5.20
2019-02-10T04:03:06.774Z,6.53
2019-02-10T04:05:34.975Z,8.53
2019-02-10T04:08:03.250Z,5.60
2019-02-10T04:10:31.444Z,5.50
2019-02-10T04:12:59.680Z,6.20
2019-02-10T04:15:27.892Z,11.37
2019-02-10T04:17:56.134Z,5.10
2019-02-10T04:20:24.271Z,7.30
2019-02-10T04:22:52.507Z,6.53
2019-02-10T04:25:20.724Z,5.87
2019-02-10T04:27:48.965Z,6.73
2019-02-10T04:30:17.175Z,5.70
2019-02-10T04:32:45.407Z,9.30
2019-02-10T04:35:13.630Z,5.63
2019-02-10T04:37:45.932Z,6.20
2019-02-10T04:40:11.724Z,6.77
2019-02-10T04:42:39.992Z,5.40
2019-02-10T04:45:08.263Z,8.93
2019-02-10T04:47:36.500Z,6.27
2019-02-10T04:50:05.392Z,5.97
2019-02-10T04:52:33.661Z,9.13
2019-02-10T04:55:01.860Z,6.10
2019-02-10T04:57:30.095Z,8.50
2019-02-10T04:59:58.227Z,5.37
2019-02-10T05:02:26.467Z,7.80
2019-02-10T05:04:54.672Z,5.83
2019-02-10T05:07:22.941Z,6.83
2019-02-10T05:09:51.176Z,6.53
2019-02-10T05:12:19.514Z,6.13
2019-02-10T05:14:47.715Z,7.57
2019-02-10T05:17:15.952Z,6.97
2019-02-10T05:19:44.159Z,5.30
2019-02-10T05:22:12.396Z,5.60
2019-02-10T05:24:40.608Z,7.37
2019-02-10T05:27:08.847Z,5.83
2019-02-10T05:29:37.058Z,8.83
2019-02-10T05:32:05.302Z,5.40
2019-02-10T05:34:33.537Z,6.60
2019-02-10T05:37:01.782Z,5.30
2019-02-10T05:39:30.050Z,6.50
2019-02-10T05:41:58.252Z,5.73
2019-02-10T05:44:26.483Z,5.47
2019-02-10T05:46:54.691Z,5.10
2019-02-10T05:49:23.255Z,6.47
2019-02-10T05:51:51.459Z,8.03
2019-02-10T05:54:19.692Z,6.63
2019-02-10T05:56:47.906Z,7.03
2019-02-10T05:59:16.180Z,5.13
2019-02-10T06:02:05.243Z,5.93
2019-02-10T06:04:35.011Z,7.07
2019-02-10T06:07:04.850Z,5.07
2019-02-10T06:09:33.167Z,7.47
2019-02-10T06:12:01.371Z,7.43
2019-02-10T06:14:29.676Z,5.03
2019-02-10T06:16:57.989Z,6.23
2019-02-10T06:19:26.253Z,6.53
2019-02-10T06:21:54.455Z,6.93
2019-02-10T06:24:22.692Z,5.67
2019-02-10T06:26:51.227Z,4.77
2019-02-10T06:29:19.497Z,4.70
2019-02-10T06:31:47.696Z,6.20
2019-02-10T06:34:15.968Z,4.90
2019-02-10T06:36:44.171Z,4.83
2019-02-10T06:39:12.408Z,4.80
2019-02-10T06:41:40.982Z,5.83
2019-02-10T06:44:09.210Z,6.10
2019-02-10T06:46:37.449Z,5.40
2019-02-10T06:49:05.647Z,5.10
2019-02-10T06:51:33.887Z,5.60
2019-02-10T06:54:02.141Z,5.40
2019-02-10T06:56:30.369Z,6.07
2019-02-10T06:58:58.904Z,5.93
2019-02-10T07:01:46.587Z,5.07
2019-02-10T07:04:15.632Z,7.33
2019-02-10T07:06:44.196Z,5.40
2019-02-10T07:09:12.411Z,7.60
2019-02-10T07:11:40.643Z,6.90
2019-02-10T07:14:13.444Z,6.10
2019-02-10T07:16:43.211Z,6.83
2019-02-10T07:19:47.954Z,5.63
2019-02-10T07:22:32.983Z,5.70
2019-02-10T07:25:14.771Z,5.87
2019-02-10T07:27:43.359Z,9.47
2019-02-10T07:30:13.165Z,6.80
2019-02-10T07:32:45.618Z,5.13
2019-02-10T07:35:21.612Z,5.67
2019-02-10T07:37:51.391Z,5.87
2019-02-10T07:40:24.126Z,5.70
2019-02-10T07:43:04.668Z,9.37
2019-02-10T07:45:48.488Z,7.63
2019-02-10T07:48:20.987Z,5.90
2019-02-10T07:51:15.505Z,6.93
2019-02-10T07:54:03.775Z,6.63
2019-02-10T07:56:33.462Z,6.80
2019-02-10T07:59:10.392Z,5.93
2019-02-10T08:01:57.076Z,6.07
2019-02-10T08:04:29.538Z,8.03
2019-02-10T08:07:04.141Z,7.50
2019-02-10T08:09:41.734Z,13.90
2019-02-10T08:12:29.988Z,29.57
2019-02-10T08:15:19.881Z,22.63
2019-02-10T08:17:53.619Z,20.23
2019-02-10T08:20:23.473Z,23.30
2019-02-10T08:23:03.864Z,22.17
2019-02-10T08:25:59.738Z,20.73
2019-02-10T08:28:32.222Z,31.13
2019-02-10T08:31:01.959Z,24.53
2019-02-10T08:33:39.399Z,22.80
2019-02-10T08:36:26.094Z,18.53
2019-02-10T08:39:00.311Z,23.80
2019-02-10T08:41:40.543Z,23.27
2019-02-10T08:44:14.812Z,15.00
2019-02-10T08:47:01.142Z,10.87
2019-02-10T08:49:44.849Z,6.83
2019-02-10T08:52:26.582Z,7.43
2019-02-10T08:54:56.194Z,6.37
2019-02-10T08:57:24.743Z,7.87
2019-02-10T08:59:53.314Z,10.07
2019-02-10T09:02:21.541Z,8.07
2019-02-10T09:04:49.751Z,6.60
2019-02-10T09:07:18.310Z,7.70
2019-02-10T09:09:46.839Z,5.20
2019-02-10T09:12:15.379Z,10.77
2019-02-10T09:14:43.943Z,6.50
2019-02-10T09:17:12.479Z,5.03
2019-02-10T09:19:41.087Z,5.50
2019-02-10T09:22:09.675Z,11.20
2019-02-10T09:24:39.328Z,5.50
2019-02-10T09:27:07.575Z,6.13
2019-02-10T09:29:35.845Z,5.83
2019-02-10T09:32:04.376Z,4.40
2019-02-10T09:34:32.939Z,6.27
2019-02-10T09:37:01.476Z,5.83
2019-02-10T09:39:29.712Z,4.73
2019-02-10T09:41:57.918Z,5.10
2019-02-10T09:44:26.155Z,5.03
2019-02-10T09:46:54.325Z,6.00
2019-02-10T09:49:22.954Z,5.93
2019-02-10T09:51:51.483Z,5.73
2019-02-10T09:54:20.051Z,6.33
2019-02-10T09:56:48.586Z,17.83
2019-02-10T09:59:16.827Z,10.43
2019-02-10T10:01:45.355Z,11.33
2019-02-10T10:04:13.915Z,8.37
2019-02-10T10:06:42.456Z,8.17
2019-02-10T10:09:18.753Z,12.60
2019-02-10T10:11:41.195Z,4.93
2019-02-10T10:14:09.717Z,4.80
2019-02-10T10:16:38.281Z,6.73
2019-02-10T10:19:06.843Z,5.23
2019-02-10T10:21:35.406Z,8.73
2019-02-10T10:24:04.035Z,7.63
2019-02-10T10:26:32.239Z,8.47
2019-02-10T10:29:00.841Z,5.87
2019-02-10T10:31:29.367Z,6.20
2019-02-10T10:33:57.969Z,9.10
2019-02-10T10:36:26.208Z,5.87
2019-02-10T10:38:54.838Z,6.13
2019-02-10T10:41:23.368Z,7.70
2019-02-10T10:43:51.899Z,5.67
2019-02-10T10:46:20.459Z,8.43
2019-02-10T10:48:48.995Z,8.70
2019-02-10T10:51:17.599Z,7.23
2019-02-10T10:53:46.127Z,6.57
2019-02-10T10:56:14.692Z,8.37
2019-02-10T10:58:43.222Z,7.80
2019-02-10T11:01:11.382Z,7.63
2019-02-10T11:03:39.954Z,6.83
2019-02-10T11:06:08.507Z,3.73
2019-02-10T11:08:36.756Z,3.67
2019-02-10T11:11:05.378Z,3.90
2019-02-10T11:13:33.907Z,4.83
2019-02-10T11:16:02.400Z,3.60
2019-02-10T11:18:30.609Z,6.87
2019-02-10T11:20:59.209Z,5.63
2019-02-10T11:23:27.479Z,3.97
2019-02-10T11:25:56.154Z,3.90
2019-02-10T11:28:24.393Z,3.10
2019-02-10T11:30:53.157Z,3.87
2019-02-10T11:33:21.724Z,2.90
2019-02-10T11:35:50.347Z,3.20
2019-02-10T11:38:18.879Z,3.00
2019-02-10T11:40:47.112Z,3.17
2019-02-10T11:43:15.652Z,4.77
2019-02-10T11:45:44.214Z,2.70
2019-02-10T11:48:12.763Z,3.63
2019-02-10T11:50:41.354Z,3.17
2019-02-10T11:53:09.881Z,3.27
2019-02-10T11:55:38.447Z,4.60
2019-02-10T11:58:07.017Z,3.70
2019-02-10T12:00:35.682Z,4.47
2019-02-10T12:03:04.313Z,4.77
2019-02-10T12:05:32.867Z,4.80
2019-02-10T12:08:01.403Z,3.43
2019-02-10T12:10:29.978Z,4.20
2019-02-10T12:12:58.569Z,3.23
2019-02-10T12:15:27.103Z,3.77
2019-02-10T12:17:55.669Z,3.30
2019-02-10T12:20:24.203Z,4.73
2019-02-10T12:22:52.759Z,5.40
2019-02-10T12:25:21.300Z,3.40
2019-02-10T12:27:49.897Z,4.73
2019-02-10T12:30:18.094Z,4.43
2019-02-10T12:32:46.659Z,6.03
2019-02-10T12:35:15.199Z,4.63
2019-02-10T12:37:43.761Z,5.77
2019-02-10T12:40:13.135Z,5.73
2019-02-10T12:42:41.734Z,5.10
2019-02-10T12:45:12.004Z,3.97
2019-02-10T12:47:40.607Z,3.83
2019-02-10T12:50:12.208Z,3.83
2019-02-10T12:52:40.943Z,6.53
2019-02-10T12:55:10.811Z,7.47
2019-02-10T12:57:39.413Z,5.13
2019-02-10T13:00:13.849Z,6.93
2019-02-10T13:02:42.478Z,5.00
2019-02-10T13:05:11.094Z,3.97
2019-02-10T13:07:39.650Z,3.97
2019-02-10T13:10:15.706Z,4.67
2019-02-10T13:12:43.988Z,5.77
2019-02-10T13:15:13.559Z,5.23
2019-02-10T13:17:42.261Z,8.90
2019-02-10T13:20:13.869Z,6.30
2019-02-10T13:22:42.669Z,8.73
2019-02-10T13:25:12.450Z,10.03
2019-02-10T13:27:41.003Z,5.90
2019-02-10T13:30:19.509Z,4.93
2019-02-10T13:32:48.140Z,10.50
2019-02-10T13:35:16.560Z,4.97
2019-02-10T13:37:45.095Z,6.70
2019-02-10T13:40:22.544Z,4.97
2019-02-10T13:42:51.179Z,5.27
2019-02-10T13:45:19.420Z,5.03
2019-02-10T13:47:48.016Z,5.33
2019-02-10T13:50:17.888Z,3.70
2019-02-10T13:52:46.486Z,6.87
2019-02-10T13:55:16.146Z,5.97
2019-02-10T13:57:44.738Z,5.07
2019-02-10T14:00:21.596Z,4.30
2019-02-10T14:02:50.131Z,4.40
2019-02-10T14:05:20.001Z,4.37
2019-02-10T14:07:48.536Z,6.33
2019-02-10T14:10:25.235Z,11.07
2019-02-10T14:12:48.402Z,4.10
2019-02-10T14:15:18.036Z,6.57
2019-02-10T14:17:46.576Z,5.10
2019-02-10T14:20:17.760Z,5.37
2019-02-10T14:22:46.356Z,4.50
2019-02-10T14:25:15.055Z,7.30
2019-02-10T14:27:43.665Z,12.50
2019-02-10T14:30:17.605Z,8.33
2019-02-10T14:32:46.201Z,9.90
2019-02-10T14:35:14.837Z,42.17
2019-02-10T14:37:43.478Z,9.30
2019-02-10T14:40:12.376Z,9.87
2019-02-10T14:42:41.085Z,9.57
2019-02-10T14:45:16.513Z,7.10
2019-02-10T14:47:45.085Z,5.67
2019-02-10T14:50:15.958Z,6.30
2019-02-10T14:52:44.517Z,4.07
2019-02-10T14:55:13.071Z,6.57
2019-02-10T14:57:41.279Z,9.60
2019-02-10T15:00:11.160Z,8.07
2019-02-10T15:02:39.368Z,4.33
2019-02-10T15:05:08.366Z,5.37
2019-02-10T15:07:36.895Z,7.20
2019-02-10T15:10:08.535Z,7.60
2019-02-10T15:12:37.070Z,5.10
2019-02-10T15:15:08.675Z,6.17
2019-02-10T15:17:37.211Z,5.43
2019-02-10T15:20:08.416Z,9.13
2019-02-10T15:22:36.951Z,17.13
2019-02-10T15:25:10.776Z,13.43
2019-02-10T15:27:39.451Z,21.20
2019-02-10T15:30:16.207Z,14.43
2019-02-10T15:32:44.813Z,15.00
2019-02-10T15:35:13.421Z,18.57
2019-02-10T15:37:41.957Z,9.87
2019-02-10T15:40:13.157Z,10.23
2019-02-10T15:42:41.716Z,8.67
2019-02-10T15:45:14.164Z,7.27
2019-02-10T15:47:42.729Z,4.90
2019-02-10T15:50:12.500Z,4.93
2019-02-10T15:52:41.050Z,8.53
2019-02-10T15:55:10.385Z,7.17
2019-02-10T15:57:38.919Z,19.90
2019-02-10T16:00:08.763Z,13.93
2019-02-10T16:02:37.501Z,9.77
2019-02-10T16:05:06.509Z,14.07
2019-02-10T16:07:35.048Z,14.30
2019-02-10T16:10:04.317Z,8.87
2019-02-10T16:12:32.553Z,9.60
2019-02-10T16:15:01.149Z,8.07
2019-02-10T16:17:29.349Z,4.53
2019-02-10T16:19:57.916Z,5.13
2019-02-10T16:22:26.448Z,6.43
2019-02-10T16:24:55.009Z,5.50
2019-02-10T16:27:23.556Z,13.70
2019-02-10T16:29:52.125Z,9.00
2019-02-10T16:32:20.354Z,7.80
2019-02-10T16:34:48.820Z,10.57
2019-02-10T16:37:17.456Z,14.03
2019-02-10T16:39:45.991Z,10.53
2019-02-10T16:42:14.547Z,8.53
2019-02-10T16:44:43.087Z,13.60
2019-02-10T16:47:11.643Z,9.23
2019-02-10T16:49:39.886Z,7.60
2019-02-10T16:52:08.443Z,8.73
2019-02-10T16:54:37.022Z,37.20
2019-02-10T16:57:05.651Z,19.87
2019-02-10T16:59:34.191Z,17.50
2019-02-10T17:02:02.760Z,7.33
2019-02-10T17:04:31.291Z,16.07
2019-02-10T17:06:59.856Z,14.73
2019-02-10T17:09:28.467Z,22.83
2019-02-10T17:11:57.031Z,15.93
2019-02-10T17:14:25.610Z,12.73
2019-02-10T17:16:54.167Z,16.83
2019-02-10T17:19:22.705Z,16.53
2019-02-10T17:21:51.306Z,13.60
2019-02-10T17:24:19.839Z,11.20
2019-02-10T17:26:48.403Z,10.47
2019-02-10T17:29:16.940Z,20.73
2019-02-10T17:31:45.506Z,14.17
2019-02-10T17:34:14.043Z,12.13
2019-02-10T17:36:42.610Z,14.23
2019-02-10T17:39:11.925Z,11.40
2019-02-10T17:41:40.820Z,12.87
2019-02-10T17:44:09.359Z,12.40
2019-02-10T17:46:37.920Z,12.73
2019-02-10T17:49:06.489Z,19.07
2019-02-10T17:51:35.047Z,18.63
2019-02-10T17:54:03.592Z,16.27
2019-02-10T17:56:31.819Z,17.73
2019-02-10T17:59:00.358Z,11.93
2019-02-10T18:01:28.892Z,14.23
2019-02-10T18:03:57.460Z,18.70
2019-02-10T18:06:25.667Z,3.83
2019-02-10T18:08:53.903Z,11.23
2019-02-10T18:11:22.186Z,7.20
2019-02-10T18:13:50.407Z,3.73
2019-02-10T18:16:23.231Z,3.43
2019-02-10T18:18:53.111Z,2.50
2019-02-10T18:21:22.997Z,2.87
2019-02-10T18:24:08.303Z,2.57
2019-02-10T18:26:54.390Z,2.40
2019-02-10T18:29:27.131Z,2.73
2019-02-10T18:32:01.221Z,2.27
2019-02-10T18:34:31.189Z,2.50
2019-02-10T18:37:04.364Z,2.80
2019-02-10T18:39:49.575Z,2.60
2019-02-10T18:42:22.255Z,2.70
2019-02-10T18:44:52.137Z,2.33
2019-02-10T18:47:25.116Z,2.90
2019-02-10T18:50:00.934Z,2.93
2019-02-10T18:52:31.099Z,2.63
2019-02-10T18:55:07.007Z,2.50
2019-02-10T18:57:39.343Z,2.43
2019-02-10T19:00:13.860Z,2.20
2019-02-10T19:02:55.638Z,2.67
2019-02-10T19:05:28.415Z,2.40
2019-02-10T19:08:07.059Z,2.77
2019-02-10T19:10:51.671Z,2.50
2019-02-10T19:13:24.059Z,2.53
2019-02-10T19:16:10.327Z,2.80
2019-02-10T19:18:52.246Z,3.07
2019-02-10T19:21:27.879Z,2.90
2019-02-10T19:23:57.760Z,2.00
2019-02-10T19:26:39.292Z,2.40
2019-02-10T19:29:14.951Z,2.43
2019-02-10T19:31:47.839Z,7.00
2019-02-10T19:34:34.154Z,3.77
2019-02-10T19:37:07.018Z,2.63
2019-02-10T19:39:36.897Z,2.90
2019-02-10T19:42:15.914Z,3.47
2019-02-10T19:45:01.740Z,2.73
2019-02-10T19:47:48.152Z,2.60
2019-02-10T19:50:35.949Z,2.70
2019-02-10T19:53:21.879Z,2.40
2019-02-10T19:55:51.763Z,2.40
2019-02-10T19:58:30.937Z,4.87
2019-02-10T20:01:10.174Z,4.97
2019-02-10T20:03:40.023Z,4.73
2019-02-10T20:06:21.731Z,3.77
2019-02-10T20:09:09.745Z,2.93
2019-02-10T20:11:39.619Z,2.60
2019-02-10T20:14:09.476Z,2.57
2019-02-10T20:16:54.783Z,2.60
2019-02-10T20:19:27.318Z,2.93
2019-02-10T20:22:00.163Z,2.97
2019-02-10T20:24:30.015Z,2.50
2019-02-10T20:26:59.933Z,2.67
2019-02-10T20:29:32.866Z,3.00
2019-02-10T20:32:14.508Z,3.30
2019-02-10T20:34:53.486Z,2.70
2019-02-10T20:37:23.363Z,2.80
2019-02-10T20:40:09.621Z,3.43
2019-02-10T20:42:39.499Z,2.60
2019-02-10T20:45:15.142Z,4.07
2019-02-10T20:47:47.844Z,2.80
2019-02-10T20:50:34.361Z,6.00
2019-02-10T20:53:16.028Z,2.60
2019-02-10T20:55:45.875Z,2.60
2019-02-10T20:58:18.459Z,2.50
2019-02-10T21:00:48.308Z,2.90
2019-02-10T21:03:18.218Z,2.77
2019-02-10T21:05:48.063Z,2.47
2019-02-10T21:08:24.007Z,2.57
2019-02-10T21:10:59.624Z,2.40
2019-02-10T21:13:35.360Z,3.67
2019-02-10T21:16:14.113Z,2.50
2019-02-10T21:18:46.825Z,2.80
2019-02-10T21:21:33.141Z,3.20
2019-02-10T21:24:03.011Z,2.60
2019-02-10T21:26:32.854Z,2.80
2019-02-10T21:29:05.884Z,2.40
2019-02-10T21:31:35.765Z,2.80
2019-02-10T21:34:05.968Z,3.67
2019-02-10T21:36:52.397Z,2.50
2019-02-10T21:39:22.255Z,2.20
2019-02-10T21:41:55.052Z,2.47
2019-02-10T21:44:24.963Z,2.40
2019-02-10T21:46:55.130Z,2.50
2019-02-10T21:49:23.969Z,2.50
2019-02-10T21:51:52.173Z,2.30
2019-02-10T21:54:20.408Z,2.40
2019-02-10T21:56:48.618Z,2.37
2019-02-10T21:59:16.888Z,2.87
2019-02-10T22:01:45.099Z,2.10
2019-02-10T22:04:13.327Z,2.20
2019-02-10T22:06:41.532Z,2.90
2019-02-10T22:09:09.771Z,2.70
2019-02-10T22:11:37.970Z,2.70
2019-02-10T22:14:06.164Z,2.60
2019-02-10T22:16:34.366Z,2.30
2019-02-10T22:19:02.641Z,2.40
2019-02-10T22:21:30.873Z,2.30
2019-02-10T22:23:59.571Z,2.37
2019-02-10T22:26:27.776Z,2.47
2019-02-10T22:28:56.045Z,2.50
2019-02-10T22:31:24.319Z,2.63
2019-02-10T22:33:52.590Z,2.43
2019-02-10T22:36:20.859Z,2.47
2019-02-10T22:38:49.103Z,2.47
2019-02-10T22:41:17.310Z,2.17
2019-02-10T22:43:45.543Z,2.40
2019-02-10T22:46:13.751Z,2.40
2019-02-10T22:48:41.963Z,2.23
2019-02-10T22:51:10.255Z,2.70
2019-02-10T22:53:38.412Z,2.33
2019-02-10T22:56:06.648Z,2.13
2019-02-10T22:58:34.861Z,4.10
2019-02-10T23:01:04.735Z,2.30
2019-02-10T23:03:32.977Z,2.50
2019-02-10T23:06:01.214Z,2.10
2019-02-10T23:08:29.532Z,2.73
2019-02-10T23:10:57.765Z,2.30
2019-02-10T23:13:26.004Z,2.30
2019-02-10T23:15:54.273Z,2.40
2019-02-10T23:18:22.470Z,2.27
2019-02-10T23:20:50.635Z,2.33
2019-02-10T23:23:18.844Z,2.07
2019-02-10T23:25:47.081Z,2.30
2019-02-10T23:28:15.292Z,2.40
2019-02-10T23:30:43.527Z,2.50
2019-02-10T23:33:11.743Z,2.40
2019-02-10T23:35:40.089Z,2.20
2019-02-10T23:38:08.297Z,2.30
2019-02-10T23:40:36.531Z,2.30
2019-02-10T23:43:04.735Z,2.60
2019-02-10T23:45:33.005Z,2.20
2019-02-10T23:48:01.210Z,2.50
2019-02-10T23:50:29.438Z,2.30
2019-02-10T23:52:57.651Z,2.47
2019-02-10T23:55:26.784Z,2.20
2019-02-10T23:57:54.991Z,2.30
